Kayare, Texas
Current Conditions -  °F | °C
As of 2:52 AM on Saturday 29 Nov 2014 (Local Time) from KHRL Reporting Station
Clear Clear  
Wind Chill: 56°   Ceiling: Unl
Heat Index: 56°   Visibility: 10mi
Dew Point: 55°   Wind: 6mph
Humidity: 97%   Direction: 150°SSE
Pressure: 30.09"   Gusts: NA
Location:  26.2089°N, 97.6849°W
Report Text: KHRL 290852Z 15005KT 10SM CLR 13/13 A3009 RMK AO2 SLP189 T01330128 58013
Loading
Personal Weather Stations






























Interactive Weather Map New forecast layout! Learn more

10-Day Weather Forecast

Advertisements
Track Severe Weather on mobile